Time;durP1;ratioP1;P1;durP2;ratioP2;P2;SDS_P1;SDS_P2;PMS_P1;PMS_P2;Temp;Humidity;BMP_temperature;BMP_pressure;BME280_temperature;BME280_humidity;BME280_pressure;Samples;Min_cycle;Max_cycle;Signal;HPM_P1;HPM_P2
2022/11/25 00:01:58;;;;;;;18.75;3.75;;;7.10;99.90;;;;;;5098906;27;20047;-84
2022/11/25 00:04:23;;;;;;;16.30;3.78;;;7.10;99.90;;;;;;5115261;27;20051;-84
2022/11/25 00:06:49;;;;;;;18.92;3.50;;;7.10;99.90;;;;;;5115603;27;20047;-84
2022/11/25 00:09:15;;;;;;;15.88;3.70;;;7.10;99.90;;;;;;5115725;27;20054;-82
2022/11/25 00:11:41;;;;;;;12.15;3.38;;;7.10;99.90;;;;;;5099894;27;20058;-83
2022/11/25 00:14:09;;;;;;;11.00;3.63;;;7.00;99.90;;;;;;5115986;27;20039;-84
2022/11/25 00:16:35;;;;;;;12.68;3.35;;;7.00;99.90;;;;;;5098564;27;20055;-85
2022/11/25 00:19:00;;;;;;;13.23;3.90;;;7.00;99.90;;;;;;5098379;27;20039;-84
2022/11/25 00:21:28;;;;;;;15.68;4.00;;;7.00;99.90;;;;;;5132022;27;20068;-84
2022/11/25 00:23:59;;;;;;;12.88;4.53;;;6.90;99.90;;;;;;5081772;27;20055;-84
2022/11/25 00:26:26;;;;;;;16.50;3.85;;;6.90;99.90;;;;;;5081480;27;20047;-84
2022/11/25 00:28:52;;;;;;;17.30;4.05;;;6.90;99.90;;;;;;5098768;27;20046;-83
2022/11/25 00:31:22;;;;;;;15.32;4.10;;;6.80;99.90;;;;;;5115168;27;20039;-83
2022/11/25 00:33:48;;;;;;;16.15;4.30;;;6.80;99.90;;;;;;5097753;27;20058;-84
2022/11/25 00:36:16;;;;;;;23.17;4.32;;;7.10;99.90;;;;;;5098341;27;20548;-83
2022/11/25 00:38:42;;;;;;;11.70;4.10;;;6.90;99.90;;;;;;5081081;27;20057;-85
2022/11/25 00:46:36;;;;;;;17.58;4.35;;;6.80;99.90;;;;;;5132657;27;20487;-84
2022/11/25 00:49:01;;;;;;;16.33;4.47;;;6.90;99.90;;;;;;5098726;27;20051;-85
2022/11/25 00:51:27;;;;;;;14.20;4.20;;;6.90;99.90;;;;;;5098102;27;20047;-85
2022/11/25 00:53:53;;;;;;;13.77;4.07;;;6.90;99.90;;;;;;5131845;27;20043;-84
2022/11/25 00:56:19;;;;;;;14.80;4.53;;;7.00;99.90;;;;;;5098165;27;20039;-83
2022/11/25 00:58:44;;;;;;;13.43;4.00;;;7.00;99.90;;;;;;5131669;27;20057;-84
2022/11/25 01:01:10;;;;;;;17.45;4.07;;;7.00;99.90;;;;;;5097777;27;20047;-84
2022/11/25 01:03:36;;;;;;;16.95;5.07;;;7.00;99.90;;;;;;5114356;27;20139;-84
2022/11/25 01:06:06;;;;;;;17.83;4.88;;;7.10;99.90;;;;;;5114739;27;20088;-83
2022/11/25 01:08:32;;;;;;;19.65;5.20;;;7.00;99.90;;;;;;5114653;27;20097;-83
2022/11/25 01:11:02;;;;;;;14.82;4.18;;;7.00;99.90;;;;;;5114509;27;20051;-84
2022/11/25 01:13:28;;;;;;;15.88;4.82;;;7.00;99.90;;;;;;5097577;27;20043;-85
2022/11/25 01:15:54;;;;;;;15.20;4.40;;;6.00;99.90;;;;;;5080575;27;20076;-84
2022/11/25 01:18:19;;;;;;;12.40;4.22;;;7.00;99.90;;;;;;5114513;27;20047;-84
2022/11/25 01:20:45;;;;;;;12.40;3.85;;;7.50;99.90;;;;;;5113897;27;20047;-84
2022/11/25 01:23:11;;;;;;;16.27;4.55;;;7.00;99.90;;;;;;5131216;27;20039;-83
2022/11/25 01:25:37;;;;;;;14.55;4.25;;;6.90;99.90;;;;;;5115201;27;20047;-83
2022/11/25 01:28:03;;;;;;;20.15;4.40;;;6.90;99.90;;;;;;5098499;27;20061;-83
2022/11/25 01:30:29;;;;;;;13.48;4.00;;;6.90;99.90;;;;;;5097196;28;20475;-84
2022/11/25 01:32:54;;;;;;;17.13;4.80;;;6.90;99.90;;;;;;5113780;28;20395;-84
2022/11/25 01:35:20;;;;;;;15.50;4.25;;;6.90;99.90;;;;;;5110721;28;20047;-82
2022/11/25 01:37:46;;;;;;;18.80;4.78;;;6.90;99.90;;;;;;5093934;28;20058;-84
2022/11/25 01:40:11;;;;;;;19.33;4.68;;;6.80;99.90;;;;;;5077020;28;20480;-84
2022/11/25 01:42:45;;;;;;;12.40;4.30;;;6.80;99.90;;;;;;5093379;28;20043;-85
2022/11/25 01:45:23;;;;;;;16.38;4.47;;;7.60;99.90;;;;;;5077211;28;20062;-84
2022/11/25 01:47:55;;;;;;;14.90;4.32;;;6.80;99.90;;;;;;5093771;28;20052;-83
2022/11/25 01:50:20;;;;;;;14.88;4.40;;;6.80;99.90;;;;;;5077114;28;20040;-84
2022/11/25 01:52:47;;;;;;;18.75;4.63;;;6.80;99.90;;;;;;5076500;28;20051;-84
2022/11/25 01:55:18;;;;;;;11.68;4.30;;;6.90;99.90;;;;;;5093742;28;20056;-85
2022/11/25 01:57:49;;;;;;;19.92;4.47;;;6.80;99.90;;;;;;5094022;28;20051;-84
2022/11/25 02:00:15;;;;;;;15.73;4.57;;;7.00;99.90;;;;;;5093546;28;20126;-84
2022/11/25 02:02:40;;;;;;;16.15;4.32;;;6.80;99.90;;;;;;5093137;28;20135;-85
2022/11/25 02:05:07;;;;;;;15.40;4.80;;;6.80;99.90;;;;;;5093702;28;20047;-85
2022/11/25 02:07:37;;;;;;;15.55;4.85;;;6.80;99.90;;;;;;5094054;28;20444;-84
2022/11/25 02:10:06;;;;;;;12.27;3.83;;;6.50;99.90;;;;;;5077182;28;20048;-84
2022/11/25 02:12:33;;;;;;;16.67;4.70;;;6.90;99.90;;;;;;5110656;28;20090;-83
2022/11/25 02:14:59;;;;;;;11.93;4.05;;;8.20;99.90;;;;;;5076212;28;20055;-84
2022/11/25 02:17:24;;;;;;;17.98;5.20;;;6.90;99.90;;;;;;5093335;28;20120;-85
2022/11/25 02:19:58;;;;;;;13.00;3.67;;;6.90;99.90;;;;;;5092922;28;20044;-83
2022/11/25 02:22:31;;;;;;;12.83;4.57;;;7.00;99.90;;;;;;5111385;28;20067;-84
2022/11/25 02:24:59;;;;;;;14.63;4.35;;;7.00;99.90;;;;;;5076561;28;20043;-84
2022/11/25 02:27:25;;;;;;;14.43;4.72;;;7.00;99.90;;;;;;5076402;28;20054;-85
2022/11/25 02:29:50;;;;;;;22.38;4.53;;;7.00;99.90;;;;;;5076134;28;20044;-84
2022/11/25 02:32:20;;;;;;;14.82;5.22;;;7.00;99.90;;;;;;5076440;28;20048;-85
2022/11/25 02:34:46;;;;;;;13.75;4.03;;;7.00;99.90;;;;;;5078899;28;20055;-84
2022/11/25 02:37:13;;;;;;;16.83;4.57;;;7.00;99.90;;;;;;5130586;28;20100;-84
2022/11/25 02:39:39;;;;;;;18.65;4.85;;;7.00;99.90;;;;;;5080843;27;20047;-87
2022/11/25 02:42:05;;;;;;;16.13;4.75;;;7.00;99.90;;;;;;5100496;27;20050;-85
2022/11/25 02:44:30;;;;;;;18.08;4.47;;;7.00;99.90;;;;;;5100472;27;20411;-86
2022/11/25 02:46:56;;;;;;;16.50;4.82;;;7.00;99.90;;;;;;5099845;27;20413;-83
2022/11/25 02:49:21;;;;;;;22.55;5.15;;;7.00;99.90;;;;;;5117246;27;20047;-84
2022/11/25 02:51:47;;;;;;;19.63;5.38;;;7.00;99.90;;;;;;5099495;27;20137;-84
2022/11/25 02:54:13;;;;;;;21.58;4.88;;;7.00;99.90;;;;;;5099875;27;20088;-84
2022/11/25 02:56:39;;;;;;;25.85;5.20;;;7.00;99.90;;;;;;5098869;27;20047;-84
2022/11/25 02:59:05;;;;;;;20.40;5.20;;;7.00;99.90;;;;;;5082185;27;20039;-86
2022/11/25 03:01:31;;;;;;;18.92;4.95;;;7.00;99.90;;;;;;5134013;27;20122;-83
2022/11/25 03:03:56;;;;;;;22.45;5.40;;;7.10;99.90;;;;;;5099378;27;20031;-84
2022/11/25 03:06:22;;;;;;;18.40;5.40;;;7.10;99.90;;;;;;5116386;27;20112;-84
2022/11/25 03:08:48;;;;;;;14.13;4.95;;;7.10;99.90;;;;;;5115803;27;20070;-84
2022/11/25 03:11:14;;;;;;;19.52;5.28;;;7.10;99.90;;;;;;5082461;27;20394;-85
2022/11/25 03:13:39;;;;;;;21.13;5.22;;;7.10;99.90;;;;;;5099043;27;20123;-86
2022/11/25 03:16:05;;;;;;;15.40;5.60;;;7.10;99.90;;;;;;5115987;27;20486;-86
2022/11/25 03:18:31;;;;;;;20.65;5.97;;;7.10;99.90;;;;;;5116174;27;20487;-85
2022/11/25 03:20:57;;;;;;;20.65;5.65;;;7.10;99.90;;;;;;5100256;27;20077;-86
2022/11/25 03:23:22;;;;;;;15.13;6.00;;;7.10;99.90;;;;;;5103651;27;20039;-84
2022/11/25 03:25:48;;;;;;;16.52;5.13;;;7.10;99.90;;;;;;5082896;27;20069;-85
2022/11/25 03:28:14;;;;;;;17.25;5.63;;;7.20;99.90;;;;;;5117073;27;20472;-84
2022/11/25 03:30:40;;;;;;;24.10;5.40;;;7.40;99.90;;;;;;5099636;27;20494;-85
2022/11/25 03:33:05;;;;;;;23.85;6.05;;;7.20;99.90;;;;;;5116247;27;20078;-85
2022/11/25 03:35:31;;;;;;;20.60;5.90;;;7.30;99.90;;;;;;5099262;27;20475;-85
2022/11/25 03:37:57;;;;;;;17.52;5.63;;;7.30;99.90;;;;;;5098783;27;20126;-83
2022/11/25 03:40:22;;;;;;;25.05;6.22;;;7.30;99.90;;;;;;5099034;27;20051;-86
2022/11/25 03:42:48;;;;;;;24.63;7.40;;;7.30;99.90;;;;;;5132278;27;20045;-86
2022/11/25 03:45:14;;;;;;;19.75;6.05;;;7.50;99.90;;;;;;5116241;27;20100;-85
2022/11/25 03:47:43;;;;;;;24.42;5.60;;;7.40;99.90;;;;;;5116524;27;20054;-86
2022/11/25 03:50:15;;;;;;;27.90;6.40;;;7.30;99.90;;;;;;5099602;27;20047;-86
2022/11/25 03:52:41;;;;;;;22.55;6.10;;;7.30;99.90;;;;;;5099615;27;20124;-85
2022/11/25 03:55:07;;;;;;;19.75;6.50;;;7.30;99.90;;;;;;5099045;27;20077;-84
2022/11/25 03:57:33;;;;;;;22.05;5.78;;;7.30;99.90;;;;;;5082180;27;20130;-84
2022/11/25 03:59:59;;;;;;;20.90;6.55;;;7.30;99.90;;;;;;5132717;27;20573;-85
2022/11/25 04:02:24;;;;;;;22.88;6.53;;;7.30;99.90;;;;;;5098080;27;20084;-85
2022/11/25 04:04:50;;;;;;;21.23;7.38;;;7.50;99.90;;;;;;5115285;27;20116;-86
2022/11/25 04:07:15;;;;;;;25.70;6.68;;;8.00;99.90;;;;;;5132878;27;20089;-85
2022/11/25 04:09:41;;;;;;;23.25;6.97;;;7.30;99.90;;;;;;5099456;27;20047;-85
2022/11/25 04:14:52;;;;;;;24.00;6.38;;;7.30;99.90;;;;;;5118064;27;20058;-85
2022/11/25 04:17:17;;;;;;;23.95;7.28;;;7.30;99.90;;;;;;5099302;27;20039;-84
2022/11/25 04:19:43;;;;;;;25.08;7.03;;;7.30;99.90;;;;;;5099031;27;20050;-84
2022/11/25 04:22:09;;;;;;;20.42;6.65;;;7.30;99.90;;;;;;5118061;27;20057;-85
2022/11/25 04:24:35;;;;;;;21.42;6.68;;;7.40;99.90;;;;;;5135098;27;20055;-84
2022/11/25 04:27:01;;;;;;;26.10;7.55;;;7.30;99.90;;;;;;5115376;27;20043;-85
2022/11/25 04:29:27;;;;;;;18.88;7.10;;;8.80;99.90;;;;;;5115939;27;20047;-85
2022/11/25 04:31:52;;;;;;;23.70;7.45;;;7.40;99.90;;;;;;5115618;27;20331;-85
2022/11/25 04:34:18;;;;;;;31.48;7.78;;;7.40;99.90;;;;;;5098068;27;20054;-85
2022/11/25 04:36:44;;;;;;;24.63;7.70;;;7.40;99.90;;;;;;5098190;27;20490;-84
2022/11/25 04:39:09;;;;;;;25.75;8.18;;;7.40;99.90;;;;;;5132124;27;20081;-85
2022/11/25 04:41:35;;;;;;;28.27;9.50;;;7.40;99.90;;;;;;5115035;27;20047;-85
2022/11/25 04:44:01;;;;;;;23.98;7.75;;;7.40;99.90;;;;;;5114843;27;20106;-84
2022/11/25 04:46:33;;;;;;;31.40;8.55;;;7.50;99.90;;;;;;5098750;27;20062;-84
2022/11/25 04:48:58;;;;;;;29.90;7.88;;;7.50;99.90;;;;;;5099065;27;20043;-86
2022/11/25 04:51:24;;;;;;;28.95;8.90;;;7.40;99.90;;;;;;5081092;27;20047;-85
2022/11/25 04:53:49;;;;;;;22.52;8.23;;;7.40;99.90;;;;;;5132185;27;20079;-86
2022/11/25 04:56:17;;;;;;;31.55;8.30;;;7.50;99.90;;;;;;5097970;27;20258;-83
2022/11/25 05:01:26;;;;;;;24.70;8.18;;;7.50;99.90;;;;;;5117543;27;20054;-85
2022/11/25 05:03:52;;;;;;;24.10;7.95;;;7.50;99.90;;;;;;5114132;27;20051;-84
2022/11/25 05:06:18;;;;;;;23.08;7.85;;;7.50;99.90;;;;;;5113769;27;20082;-85
2022/11/25 05:08:46;;;;;;;25.85;8.48;;;7.50;99.90;;;;;;5097765;27;20433;-84
2022/11/25 05:11:12;;;;;;;29.27;9.70;;;7.60;99.90;;;;;;5097287;27;20046;-85
2022/11/25 05:13:38;;;;;;;21.10;8.15;;;7.50;99.90;;;;;;5097274;27;20129;-84
2022/11/25 05:16:04;;;;;;;31.55;9.07;;;8.40;99.90;;;;;;5131977;27;20051;-85
2022/11/25 05:18:29;;;;;;;32.65;8.10;;;7.50;99.90;;;;;;5097815;27;20059;-84
2022/11/25 05:20:59;;;;;;;28.65;8.75;;;7.40;99.90;;;;;;5098117;27;20096;-84
2022/11/25 05:23:24;;;;;;;25.90;8.60;;;7.50;99.90;;;;;;5099572;27;20080;-85
2022/11/25 05:25:50;;;;;;;27.10;8.35;;;7.40;99.90;;;;;;5136911;27;20051;-85
2022/11/25 05:28:16;;;;;;;25.25;8.07;;;7.40;99.90;;;;;;5114160;28;20047;-86
2022/11/25 05:30:44;;;;;;;20.90;8.57;;;7.40;99.90;;;;;;5114142;28;20076;-84
2022/11/25 05:33:09;;;;;;;23.27;8.88;;;7.40;99.90;;;;;;5097551;27;20105;-84
2022/11/25 05:35:35;;;;;;;23.60;8.57;;;7.40;99.90;;;;;;5096480;28;20087;-85
2022/11/25 05:38:02;;;;;;;26.27;9.05;;;7.40;99.90;;;;;;5131671;28;20054;-85
2022/11/25 05:40:28;;;;;;;27.90;8.88;;;7.30;99.90;;;;;;5097505;28;20086;-86
2022/11/25 05:42:54;;;;;;;29.25;10.05;;;7.50;99.90;;;;;;5080231;28;20058;-85
2022/11/25 05:45:19;;;;;;;25.40;10.95;;;7.60;99.90;;;;;;5113876;28;20068;-84
2022/11/25 05:47:45;;;;;;;37.25;11.27;;;7.80;99.90;;;;;;5097380;28;20051;-84
2022/11/25 05:50:11;;;;;;;30.80;10.57;;;7.60;99.90;;;;;;5096874;28;20047;-84
2022/11/25 05:52:36;;;;;;;25.10;9.85;;;7.60;99.90;;;;;;5097422;28;20054;-84
2022/11/25 05:55:02;;;;;;;32.63;11.55;;;7.70;99.90;;;;;;5097022;28;20036;-85
2022/11/25 05:57:28;;;;;;;33.28;11.60;;;7.70;99.90;;;;;;5113742;28;20046;-84
2022/11/25 05:59:53;;;;;;;28.35;11.02;;;7.70;99.90;;;;;;5114625;28;20043;-84
2022/11/25 06:02:19;;;;;;;30.60;10.27;;;7.80;99.90;;;;;;5114271;28;20043;-84
2022/11/25 06:04:44;;;;;;;34.80;12.40;;;7.80;99.90;;;;;;5131760;28;20445;-85
2022/11/25 06:07:10;;;;;;;26.73;8.98;;;7.80;99.90;;;;;;5114002;28;20074;-85
2022/11/25 06:09:36;;;;;;;28.08;11.82;;;7.90;99.90;;;;;;5130978;28;20368;-84
2022/11/25 06:12:01;;;;;;;26.40;13.20;;;7.90;99.90;;;;;;5097368;28;20376;-85
2022/11/25 06:14:27;;;;;;;31.73;11.38;;;7.90;99.90;;;;;;5130416;27;20039;-85
2022/11/25 06:16:53;;;;;;;36.00;13.02;;;7.90;99.90;;;;;;5133917;27;20048;-85
2022/11/25 06:19:24;;;;;;;28.92;11.85;;;7.90;99.90;;;;;;5085734;27;20054;-84
2022/11/25 06:21:50;;;;;;;29.25;12.02;;;8.00;99.90;;;;;;5117833;27;20047;-83
2022/11/25 06:24:16;;;;;;;27.20;12.18;;;8.00;99.90;;;;;;5134504;27;20096;-84
2022/11/25 06:26:41;;;;;;;26.80;11.88;;;8.00;99.90;;;;;;5118061;27;20043;-85
2022/11/25 06:29:07;;;;;;;31.63;11.93;;;8.10;99.90;;;;;;5117429;27;20054;-84
2022/11/25 06:31:33;;;;;;;31.02;12.10;;;8.30;99.90;;;;;;5117064;27;20039;-85
2022/11/25 06:33:58;;;;;;;32.92;11.15;;;8.60;99.90;;;;;;5100484;27;20530;-85
2022/11/25 06:36:24;;;;;;;32.22;12.20;;;8.00;99.90;;;;;;5133710;27;20051;-85
2022/11/25 06:38:51;;;;;;;31.05;10.88;;;8.00;99.90;;;;;;5118000;27;20087;-86
2022/11/25 06:41:17;;;;;;;24.45;11.25;;;8.00;99.90;;;;;;5100727;27;20043;-84
2022/11/25 06:43:43;;;;;;;32.45;10.77;;;8.00;99.90;;;;;;5117527;27;20043;-84
2022/11/25 06:46:11;;;;;;;33.58;10.70;;;8.00;99.90;;;;;;5100468;27;20080;-84
2022/11/25 06:48:37;;;;;;;26.88;10.68;;;8.00;99.90;;;;;;5100109;27;20069;-84
2022/11/25 06:51:07;;;;;;;26.85;10.45;;;8.00;99.90;;;;;;5100043;27;20047;-85
2022/11/25 06:53:33;;;;;;;32.85;11.75;;;8.00;99.90;;;;;;5079529;28;20517;-85
2022/11/25 06:56:10;;;;;;;27.15;9.70;;;8.00;99.90;;;;;;5099398;27;20046;-83
2022/11/25 06:58:36;;;;;;;22.02;8.88;;;8.10;99.90;;;;;;5133208;27;20054;-84
2022/11/25 07:01:22;;;;;;;27.95;9.65;;;8.10;99.90;;;;;;5116839;27;20047;-84
2022/11/25 07:03:57;;;;;;;29.90;9.52;;;8.00;99.90;;;;;;5102107;27;20063;-84
2022/11/25 07:06:23;;;;;;;31.42;9.25;;;7.90;99.90;;;;;;5101037;27;20080;-85
2022/11/25 07:08:49;;;;;;;22.20;9.77;;;8.00;99.90;;;;;;5099981;27;20402;-85
2022/11/25 07:11:18;;;;;;;28.83;9.70;;;7.90;99.90;;;;;;5116703;27;20035;-84
2022/11/25 07:13:45;;;;;;;26.48;9.13;;;7.90;99.90;;;;;;5133822;27;20085;-84
2022/11/25 07:16:11;;;;;;;22.88;9.80;;;7.90;99.90;;;;;;5100472;27;20369;-84
2022/11/25 07:18:37;;;;;;;20.02;8.43;;;8.00;99.90;;;;;;5117900;27;20447;-82
2022/11/25 07:21:03;;;;;;;25.58;8.73;;;8.00;99.90;;;;;;5134211;27;20047;-83
2022/11/25 07:23:29;;;;;;;21.52;8.32;;;8.00;99.90;;;;;;5117471;27;20054;-83
2022/11/25 07:25:59;;;;;;;27.25;8.73;;;8.00;99.90;;;;;;5120092;27;20107;-84
2022/11/25 07:28:25;;;;;;;25.55;7.97;;;8.00;99.90;;;;;;5099415;27;20047;-84
2022/11/25 07:30:51;;;;;;;22.45;7.68;;;8.00;99.90;;;;;;5099017;27;20130;-84
2022/11/25 07:33:16;;;;;;;18.10;7.15;;;7.90;99.90;;;;;;5099555;27;20043;-84
2022/11/25 07:35:42;;;;;;;20.88;7.13;;;8.00;99.90;;;;;;5116670;27;20093;-84
2022/11/25 07:38:08;;;;;;;26.98;7.40;;;8.00;99.90;;;;;;5134046;27;20054;-82
2022/11/25 07:40:33;;;;;;;21.48;7.68;;;8.40;99.90;;;;;;5099458;27;20051;-84
2022/11/25 07:42:59;;;;;;;21.42;7.22;;;8.00;99.90;;;;;;5117361;27;20046;-84
2022/11/25 07:45:25;;;;;;;20.20;7.03;;;8.10;99.90;;;;;;5116918;27;20051;-84
2022/11/25 07:47:51;;;;;;;23.45;8.13;;;8.20;99.90;;;;;;5100988;27;20054;-84
2022/11/25 07:50:17;;;;;;;16.08;6.20;;;7.90;99.90;;;;;;5117210;27;20039;-84
2022/11/25 07:52:42;;;;;;;21.58;6.82;;;7.80;99.90;;;;;;5099259;28;20177;-83
2022/11/25 07:55:08;;;;;;;18.23;6.85;;;7.90;99.90;;;;;;5078604;28;20388;-84
2022/11/25 07:57:34;;;;;;;22.50;7.15;;;7.80;99.90;;;;;;5078607;28;20104;-84
2022/11/25 08:00:00;;;;;;;26.23;6.85;;;7.80;99.90;;;;;;5095797;28;20464;-83
2022/11/25 08:02:25;;;;;;;15.27;6.47;;;7.80;99.90;;;;;;5095731;28;20040;-84
2022/11/25 08:04:51;;;;;;;19.90;6.15;;;7.70;99.90;;;;;;5079259;28;20039;-85
2022/11/25 08:07:16;;;;;;;17.15;5.43;;;7.70;99.90;;;;;;5113047;28;20077;-82
2022/11/25 08:09:42;;;;;;;17.92;5.97;;;7.70;99.90;;;;;;5078229;28;20047;-84
2022/11/25 08:12:08;;;;;;;21.50;6.82;;;7.80;99.90;;;;;;5078336;28;20084;-85
2022/11/25 08:14:34;;;;;;;21.23;7.38;;;7.80;99.90;;;;;;5077206;28;20054;-83
2022/11/25 08:16:59;;;;;;;22.85;6.47;;;7.90;99.90;;;;;;5078577;28;20052;-83
2022/11/25 08:19:25;;;;;;;18.25;5.95;;;8.00;99.90;;;;;;5098399;27;20047;-85
2022/11/25 08:21:51;;;;;;;17.67;6.43;;;8.10;99.90;;;;;;5113994;27;20071;-84
2022/11/25 08:24:20;;;;;;;15.98;5.28;;;8.10;99.90;;;;;;5114965;27;20392;-84
2022/11/25 08:26:45;;;;;;;13.77;5.80;;;8.10;99.90;;;;;;5094891;27;20070;-84
2022/11/25 08:29:15;;;;;;;17.58;5.75;;;8.10;99.90;;;;;;5097829;27;20149;-84
2022/11/25 08:31:41;;;;;;;21.42;6.13;;;8.10;99.90;;;;;;5097146;27;20039;-84
2022/11/25 08:34:07;;;;;;;20.75;5.70;;;8.20;99.90;;;;;;5096625;27;20039;-83
2022/11/25 08:36:33;;;;;;;13.63;5.28;;;8.30;99.90;;;;;;5116506;27;20160;-84
2022/11/25 08:39:00;;;;;;;16.52;5.70;;;9.00;99.90;;;;;;5100704;27;20452;-84
2022/11/25 08:41:31;;;;;;;17.48;5.80;;;8.40;99.90;;;;;;5083496;27;20046;-85
2022/11/25 08:43:58;;;;;;;16.80;6.10;;;8.40;99.90;;;;;;5101722;27;20051;-82
2022/11/25 08:46:26;;;;;;;13.93;5.47;;;8.50;99.90;;;;;;5100446;27;20051;-83
2022/11/25 08:48:52;;;;;;;18.92;6.68;;;9.20;99.90;;;;;;5083189;27;20398;-85
2022/11/25 08:51:20;;;;;;;18.25;5.40;;;8.60;99.90;;;;;;5117219;27;20054;-85
2022/11/25 08:53:49;;;;;;;12.13;5.45;;;8.60;99.90;;;;;;5100210;27;20051;-85
2022/11/25 08:56:15;;;;;;;15.45;6.00;;;8.80;99.90;;;;;;5101590;27;20097;-86
2022/11/25 08:58:41;;;;;;;18.45;7.10;;;8.80;99.90;;;;;;5100265;27;20046;-86
2022/11/25 09:01:07;;;;;;;12.57;5.70;;;8.80;99.90;;;;;;5101200;27;20043;-84
2022/11/25 09:03:34;;;;;;;18.60;6.05;;;8.80;99.90;;;;;;5118423;27;20099;-86
2022/11/25 09:05:59;;;;;;;13.48;6.05;;;9.10;99.90;;;;;;5102175;27;20039;-86
2022/11/25 09:08:25;;;;;;;13.75;5.47;;;8.90;99.90;;;;;;5102044;27;20722;-84
2022/11/25 09:10:50;;;;;;;19.13;7.70;;;9.00;99.90;;;;;;5133130;27;20039;-86
2022/11/25 09:13:17;;;;;;;18.10;5.38;;;9.00;99.90;;;;;;5134051;27;20117;-85
2022/11/25 09:15:43;;;;;;;12.30;5.85;;;9.00;99.90;;;;;;5116998;27;20046;-83
2022/11/25 09:18:10;;;;;;;12.27;6.05;;;8.80;99.90;;;;;;5134272;27;20050;-84
2022/11/25 09:20:37;;;;;;;13.90;5.90;;;8.60;99.90;;;;;;5116625;27;20083;-84
2022/11/25 09:23:02;;;;;;;20.08;6.85;;;8.60;99.90;;;;;;5082615;27;20386;-83
2022/11/25 09:25:28;;;;;;;17.45;6.95;;;8.60;99.90;;;;;;5133869;27;20050;-85
2022/11/25 09:27:55;;;;;;;11.70;6.85;;;8.80;99.90;;;;;;5099154;27;20082;-84
2022/11/25 09:30:21;;;;;;;13.32;5.78;;;8.70;99.90;;;;;;5080454;27;20496;-85
2022/11/25 09:32:50;;;;;;;12.20;5.85;;;8.70;99.90;;;;;;5100183;27;20081;-84
2022/11/25 09:35:16;;;;;;;17.40;6.72;;;8.80;99.90;;;;;;5117298;27;20073;-85
2022/11/25 09:37:42;;;;;;;14.40;6.07;;;8.80;99.90;;;;;;5133544;27;20125;-85
2022/11/25 09:40:29;;;;;;;10.98;5.97;;;9.70;99.90;;;;;;5100931;27;20149;-85
2022/11/25 09:46:46;;;;;;;15.88;6.97;;;8.90;99.90;;;;;;5133851;27;20039;-85
2022/11/25 09:49:36;;;;;;;15.98;6.47;;;8.80;99.90;;;;;;5102550;27;20046;-85
2022/11/25 09:52:26;;;;;;;11.75;6.00;;;8.80;99.90;;;;;;5137515;27;20496;-84
2022/11/25 09:54:51;;;;;;;14.50;6.13;;;8.90;99.90;;;;;;5137047;27;20039;-83
2022/11/25 09:57:51;;;;;;;16.15;6.75;;;9.00;99.90;;;;;;5137716;27;20095;-85
2022/11/25 10:00:18;;;;;;;12.38;5.85;;;8.90;99.90;;;;;;5137096;27;20066;-83
2022/11/25 10:03:05;;;;;;;8.32;5.07;;;8.90;99.90;;;;;;5101245;27;20136;-84
2022/11/25 10:05:38;;;;;;;13.15;5.53;;;8.90;99.90;;;;;;5119565;27;20054;-83
2022/11/25 10:08:11;;;;;;;10.50;5.20;;;9.00;99.90;;;;;;5136346;27;20054;-84
2022/11/25 10:10:43;;;;;;;9.70;4.78;;;9.00;99.90;;;;;;5096321;27;20046;-84
2022/11/25 10:13:38;;;;;;;11.80;5.90;;;9.00;99.90;;;;;;5104660;27;20059;-83
2022/11/25 10:16:05;;;;;;;13.35;6.40;;;8.90;99.90;;;;;;5100708;27;20508;-84
2022/11/25 10:18:38;;;;;;;12.18;5.70;;;9.10;99.90;;;;;;5099617;27;20054;-83
2022/11/25 10:21:04;;;;;;;9.73;5.50;;;9.30;99.90;;;;;;5104222;27;20070;-83
2022/11/25 10:23:34;;;;;;;11.75;5.35;;;9.40;99.90;;;;;;5103955;27;20109;-83
2022/11/25 10:26:14;;;;;;;9.90;4.97;;;10.10;99.90;;;;;;5103642;27;20069;-83
2022/11/25 10:28:47;;;;;;;9.98;4.90;;;9.30;99.90;;;;;;5118611;27;20042;-85
2022/11/25 10:31:17;;;;;;;11.52;4.65;;;9.30;99.90;;;;;;5087035;27;20915;-84
2022/11/25 10:33:47;;;;;;;16.10;4.88;;;9.30;99.90;;;;;;5103414;27;20608;-84
2022/11/25 10:36:18;;;;;;;8.77;4.45;;;9.30;99.90;;;;;;5120444;27;20058;-83
2022/11/25 10:38:53;;;;;;;12.93;4.95;;;9.40;99.90;;;;;;5103987;27;20058;-84
2022/11/25 10:41:21;;;;;;;13.02;4.25;;;10.20;99.90;;;;;;5120710;27;20043;-84
2022/11/25 10:43:46;;;;;;;10.13;4.13;;;9.30;99.90;;;;;;5085842;27;20034;-85
2022/11/25 10:46:30;;;;;;;10.77;4.53;;;9.40;99.90;;;;;;5120339;27;20054;-84
2022/11/25 10:49:00;;;;;;;11.13;3.65;;;9.40;99.90;;;;;;5102918;27;20088;-83
2022/11/25 10:51:45;;;;;;;8.50;3.80;;;9.40;99.90;;;;;;5120264;27;20136;-84
2022/11/25 10:54:12;;;;;;;9.23;3.90;;;9.40;99.90;;;;;;5119801;27;20084;-85
2022/11/25 10:56:55;;;;;;;10.20;3.80;;;9.40;99.90;;;;;;5137556;27;20130;-83
2022/11/25 10:59:33;;;;;;;9.23;3.92;;;9.50;99.90;;;;;;5104512;27;20375;-84
2022/11/25 11:02:27;;;;;;;9.55;3.88;;;9.50;99.90;;;;;;5119203;27;20047;-84
2022/11/25 11:04:56;;;;;;;5.03;3.40;;;9.60;99.90;;;;;;5119628;27;20429;-83
2022/11/25 11:07:21;;;;;;;7.03;3.60;;;9.70;99.90;;;;;;5103030;27;20137;-83
2022/11/25 11:09:48;;;;;;;9.65;3.80;;;9.70;99.90;;;;;;5119711;27;20117;-83
2022/11/25 11:12:21;;;;;;;10.75;3.60;;;9.70;99.90;;;;;;5104421;27;20050;-85
2022/11/25 11:14:46;;;;;;;14.23;4.78;;;9.80;99.90;;;;;;5102555;27;20042;-86
2022/11/25 11:17:30;;;;;;;9.70;3.83;;;9.70;99.90;;;;;;5104032;27;20039;-86
2022/11/25 11:20:22;;;;;;;11.60;3.77;;;9.80;99.90;;;;;;5117877;27;20084;-85
2022/11/25 11:22:51;;;;;;;9.70;3.20;;;9.90;99.90;;;;;;5104148;27;20102;-85
2022/11/25 11:25:19;;;;;;;14.85;3.90;;;9.90;99.90;;;;;;5087623;27;20057;-86
2022/11/25 11:27:45;;;;;;;8.75;4.05;;;10.00;99.90;;;;;;5121465;27;20042;-85
2022/11/25 11:30:19;;;;;;;13.07;3.80;;;9.90;99.90;;;;;;5116429;27;20585;-85
2022/11/25 11:32:53;;;;;;;;;;;9.90;99.90;;;;;;5102497;27;20340;-85
2022/11/25 11:35:25;;;;;;;11.13;3.10;;;9.90;99.90;;;;;;5119104;27;19926;-85
2022/11/25 11:37:57;;;;;;;10.05;3.42;;;10.00;99.90;;;;;;5102249;27;20098;-85
2022/11/25 11:40:43;;;;;;;8.30;3.45;;;9.90;99.90;;;;;;5103019;27;20046;-86
2022/11/25 11:43:43;;;;;;;7.97;2.97;;;9.90;99.90;;;;;;5118094;27;20038;-86
2022/11/25 11:46:10;;;;;;;9.60;3.40;;;9.90;99.90;;;;;;5106080;27;20047;-84
2022/11/25 11:49:04;;;;;;;6.55;2.70;;;10.00;99.90;;;;;;5136573;27;20043;-84
2022/11/25 11:51:53;;;;;;;10.80;3.35;;;10.20;99.90;;;;;;5119213;27;20388;-81
2022/11/25 11:54:44;;;;;;;12.52;3.38;;;10.20;99.90;;;;;;5103109;27;20046;-83
2022/11/25 11:57:38;;;;;;;11.65;3.65;;;10.30;99.90;;;;;;5087157;27;20159;-83
2022/11/25 12:00:07;;;;;;;12.65;2.97;;;10.40;99.90;;;;;;5134039;27;20103;-83
2022/11/25 12:02:33;;;;;;;12.98;2.78;;;10.50;99.90;;;;;;5102158;27;20086;-83
2022/11/25 12:05:10;;;;;;;9.07;2.90;;;10.60;99.90;;;;;;5135647;27;20131;-84
2022/11/25 12:08:09;;;;;;;14.32;2.90;;;10.50;99.90;;;;;;5103059;27;20051;-83
2022/11/25 12:10:46;;;;;;;14.38;4.07;;;10.40;99.90;;;;;;5135883;27;20050;-84
2022/11/25 12:13:14;;;;;;;8.25;2.90;;;10.40;99.90;;;;;;5116937;27;20058;-83
2022/11/25 12:15:42;;;;;;;9.43;2.97;;;10.40;99.90;;;;;;5101542;27;20089;-82
2022/11/25 12:18:32;;;;;;;10.65;2.58;;;10.20;99.90;;;;;;5119591;27;20391;-83
2022/11/25 12:21:01;;;;;;;8.15;2.67;;;10.20;99.90;;;;;;5086718;27;20486;-83
2022/11/25 12:23:36;;;;;;;9.60;3.33;;;10.30;99.90;;;;;;5102409;27;20047;-84
2022/11/25 12:26:04;;;;;;;11.43;3.05;;;10.50;99.90;;;;;;5101590;27;20099;-83
2022/11/25 12:28:36;;;;;;;10.65;2.83;;;10.50;99.90;;;;;;5101699;27;20129;-83
2022/11/25 12:31:11;;;;;;;11.40;2.88;;;10.50;99.90;;;;;;5089153;27;20074;-85
2022/11/25 12:34:04;;;;;;;9.73;2.95;;;10.50;99.90;;;;;;5118117;27;20043;-81
2022/11/25 12:36:36;;;;;;;10.23;3.45;;;10.40;99.90;;;;;;5073218;27;20611;-83
2022/11/25 12:39:05;;;;;;;9.43;2.63;;;10.50;99.90;;;;;;5120417;27;20394;-84
2022/11/25 12:41:46;;;;;;;9.65;3.03;;;10.40;99.90;;;;;;5084941;27;20046;-86
2022/11/25 12:44:19;;;;;;;14.60;3.25;;;10.30;99.90;;;;;;5119196;27;20089;-85
2022/11/25 12:46:47;;;;;;;12.95;3.70;;;10.40;99.90;;;;;;5121627;27;20146;-85
2022/11/25 12:49:26;;;;;;;15.55;2.85;;;10.30;99.90;;;;;;5103288;27;20043;-85
2022/11/25 12:52:01;;;;;;;10.77;2.80;;;10.30;99.90;;;;;;5115377;27;20156;-85
2022/11/25 12:54:41;;;;;;;11.93;2.80;;;10.30;99.90;;;;;;5134466;27;20039;-85
2022/11/25 12:57:36;;;;;;;9.63;2.50;;;10.30;99.90;;;;;;5116774;27;20047;-85
2022/11/25 13:00:19;;;;;;;13.25;2.88;;;10.40;99.90;;;;;;5096049;27;20436;-84
2022/11/25 13:03:19;;;;;;;9.40;2.37;;;10.40;99.90;;;;;;5101377;27;20118;-84
2022/11/25 13:06:00;;;;;;;8.75;2.47;;;10.40;99.90;;;;;;5117783;27;20326;-85
2022/11/25 13:08:28;;;;;;;9.27;2.78;;;10.40;99.90;;;;;;5133561;27;20106;-87
2022/11/25 13:11:12;;;;;;;9.90;2.30;;;10.40;99.90;;;;;;5133897;27;20153;-85